Griffithville, Arkansas
Current Conditions -  °F | °C
As of 12:56 PM on Friday 31 Oct 2014 (Local Time) from KSRC Reporting Station
Overcast Overcast  
Wind Chill: 58°   Ceiling: 3900
Heat Index: 58°   Visibility: 10mi
Dew Point: 42°   Wind: 13mph
Humidity: 56%   Direction: 330°NNW
Pressure: 30.23"   Gusts: 24mph
Location:  35.12°N, 91.65°W
Report Text: KSRC 311756Z AUTO 33011G21KT 10SM OVC039 14/06 A3023 RMK AO2 SLP244 T01440056 10161 20111 51009 TSNO
Loading
Personal Weather Stations






























Interactive Weather Map
Tropical Storm Tracking
New forecast layout! Learn more

10-Day Weather Forecast

Advertisements
Track Severe Weather on mobile